Time;durP1;ratioP1;P1;durP2;ratioP2;P2;SDS_P1;SDS_P2;PMS_P1;PMS_P2;Temp;Humidity;BMP_temperature;BMP_pressure;BME280_temperature;BME280_humidity;BME280_pressure;Samples;Min_cycle;Max_cycle;Signal;HPM_P1;HPM_P2
2022/08/19 00:01:31;;;;;;;26.60;19.05;;;;;;;17.98;100.00;101170.25;5044100;28;20025;-66
2022/08/19 00:04:03;;;;;;;27.13;18.17;;;;;;;17.85;100.00;101172.28;5040708;28;20124;-66
2022/08/19 00:06:30;;;;;;;26.40;17.15;;;;;;;17.73;100.00;101174.28;5037027;28;20033;-66
2022/08/19 00:08:56;;;;;;;25.10;16.33;;;;;;;17.56;100.00;101171.06;5044659;28;20025;-67
2022/08/19 00:11:22;;;;;;;24.90;15.55;;;;;;;17.46;100.00;101166.81;5041075;28;20025;-67
2022/08/19 00:13:49;;;;;;;24.65;15.68;;;;;;;17.42;100.00;101169.53;5041609;28;20472;-69
2022/08/19 00:16:20;;;;;;;23.85;14.75;;;;;;;17.50;100.00;101172.06;5042046;28;20072;-68
2022/08/19 00:18:47;;;;;;;24.02;15.85;;;;;;;17.49;100.00;101166.75;5042796;28;20175;-68
2022/08/19 00:21:13;;;;;;;25.33;15.82;;;;;;;17.38;100.00;101159.81;5042305;28;20048;-68
2022/08/19 00:23:38;;;;;;;24.70;16.58;;;;;;;17.42;100.00;101163.31;5041596;28;20033;-68
2022/08/19 00:26:04;;;;;;;24.25;15.48;;;;;;;17.39;100.00;101164.25;5043529;28;20082;-69
2022/08/19 00:28:31;;;;;;;25.45;16.00;;;;;;;17.35;100.00;101162.53;5040427;28;20021;-67
2022/08/19 00:30:56;;;;;;;25.13;16.42;;;;;;;17.35;100.00;101170.56;5036550;28;20029;-67
2022/08/19 00:33:21;;;;;;;26.83;16.25;;;;;;;17.33;100.00;101163.47;5043296;28;20043;-68
2022/08/19 00:35:47;;;;;;;24.75;15.50;;;;;;;17.36;100.00;101169.66;5041356;28;20063;-67
2022/08/19 00:38:13;;;;;;;24.00;15.50;;;;;;;17.28;100.00;101165.38;5042148;28;20021;-69
2022/08/19 00:40:38;;;;;;;25.80;16.25;;;;;;;17.22;100.00;101172.56;5042643;28;20025;-68
2022/08/19 00:43:17;;;;;;;24.77;16.42;;;;;;;17.27;100.00;101174.28;5040800;28;20105;-68
2022/08/19 00:45:43;;;;;;;25.92;17.83;;;;;;;17.27;100.00;101172.50;5042138;28;20028;-68
2022/08/19 00:48:09;;;;;;;26.00;17.20;;;;;;;17.23;100.00;101173.47;5042314;28;20049;-67
2022/08/19 00:50:35;;;;;;;28.42;19.67;;;;;;;17.30;100.00;101169.78;5046744;28;20028;-67
2022/08/19 00:53:04;;;;;;;26.80;18.75;;;;;;;17.19;100.00;101169.09;5044258;28;20023;-66
2022/08/19 00:55:30;;;;;;;26.63;18.25;;;;;;;17.22;100.00;101174.38;5047338;28;20111;-68
2022/08/19 00:58:01;;;;;;;27.45;19.15;;;;;;;17.19;100.00;101175.31;5039766;28;20133;-68
2022/08/19 01:00:29;;;;;;;30.90;23.20;;;;;;;17.31;100.00;101166.19;5038748;28;20392;-69
2022/08/19 01:02:55;;;;;;;30.17;22.02;;;;;;;17.18;100.00;101170.88;5047189;28;20021;-69
2022/08/19 01:05:24;;;;;;;28.00;18.73;;;;;;;17.10;100.00;101172.81;5044475;28;20032;-69
2022/08/19 01:07:50;;;;;;;26.25;18.73;;;;;;;17.06;100.00;101166.63;5046505;28;20017;-68
2022/08/19 01:10:21;;;;;;;31.13;23.73;;;;;;;17.10;100.00;101169.25;5045001;28;20498;-60
2022/08/19 01:12:47;;;;;;;28.45;20.27;;;;;;;17.03;100.00;101176.47;5045489;28;20034;-60
2022/08/19 01:15:18;;;;;;;33.08;25.27;;;;;;;17.05;100.00;101188.91;5045204;28;20021;-61
2022/08/19 01:17:44;;;;;;;31.90;22.60;;;;;;;17.02;100.00;101183.63;5045426;28;20046;-61
2022/08/19 01:20:17;;;;;;;30.05;22.30;;;;;;;16.95;100.00;101179.31;5045797;28;20036;-61
2022/08/19 01:22:46;;;;;;;28.08;20.98;;;;;;;16.85;100.00;101172.31;5044677;28;20056;-63
2022/08/19 01:25:17;;;;;;;30.13;21.92;;;;;;;16.86;100.00;101174.97;5045741;28;20025;-61
2022/08/19 01:27:47;;;;;;;27.60;19.98;;;;;;;16.67;100.00;101176.16;5044892;28;20026;-63
2022/08/19 01:30:20;;;;;;;27.85;18.83;;;;;;;16.60;100.00;101172.72;5045016;28;20037;-61
2022/08/19 01:32:45;;;;;;;28.92;18.58;;;;;;;16.62;100.00;101175.34;5044111;28;20026;-61
2022/08/19 01:35:12;;;;;;;27.80;19.17;;;;;;;16.56;100.00;101171.84;5043989;28;20396;-61
2022/08/19 01:37:51;;;;;;;28.90;19.42;;;;;;;16.60;100.00;101171.81;5044129;28;20105;-62
2022/08/19 01:40:20;;;;;;;28.20;19.55;;;;;;;16.62;100.00;101173.56;5042902;28;20021;-61
2022/08/19 01:42:49;;;;;;;28.33;20.05;;;;;;;16.64;100.00;101169.06;5044773;28;20045;-60
2022/08/19 01:45:16;;;;;;;31.52;21.13;;;;;;;16.63;100.00;101166.41;5044574;28;20035;-61
2022/08/19 01:47:41;;;;;;;29.58;20.88;;;;;;;16.55;100.00;101166.53;5044120;28;20042;-60
2022/08/19 01:50:10;;;;;;;29.60;20.33;;;;;;;16.50;100.00;101171.09;5044501;28;20449;-61
2022/08/19 01:52:37;;;;;;;33.20;25.80;;;;;;;16.59;100.00;101162.94;5043523;28;20080;-69
2022/08/19 01:55:05;;;;;;;34.53;26.48;;;;;;;16.47;100.00;101165.75;5044744;28;20112;-68
2022/08/19 01:57:30;;;;;;;33.15;22.67;;;;;;;16.34;100.00;101160.63;5042621;28;20030;-68
2022/08/19 01:59:56;;;;;;;31.65;23.77;;;;;;;16.42;100.00;101167.63;5045609;28;20443;-69
2022/08/19 02:02:22;;;;;;;34.05;24.35;;;;;;;16.40;100.00;101170.34;5043271;28;20036;-69
2022/08/19 02:04:47;;;;;;;33.65;25.98;;;;;;;16.31;100.00;101171.34;5044650;28;20025;-69
2022/08/19 02:07:13;;;;;;;33.10;26.10;;;;;;;16.26;100.00;101166.97;5044644;28;20025;-69
2022/08/19 02:09:38;;;;;;;35.40;26.80;;;;;;;16.24;100.00;101174.09;5043268;28;20026;-69
2022/08/19 02:12:05;;;;;;;34.13;27.05;;;;;;;16.21;100.00;101175.06;5045769;28;20037;-70
2022/08/19 02:14:30;;;;;;;36.80;28.27;;;;;;;16.19;100.00;101184.84;5042507;28;20028;-70
2022/08/19 02:16:56;;;;;;;34.15;26.02;;;;;;;16.16;100.00;101184.88;5045663;28;20069;-69
2022/08/19 02:19:22;;;;;;;35.22;27.50;;;;;;;16.25;100.00;101187.44;5043294;28;20067;-69
2022/08/19 02:21:47;;;;;;;34.92;27.88;;;;;;;16.26;100.00;101183.84;5044431;28;20021;-69
2022/08/19 02:24:13;;;;;;;35.95;26.92;;;;;;;16.24;100.00;101191.00;5044091;28;20048;-69
2022/08/19 02:26:38;;;;;;;35.60;26.70;;;;;;;16.17;100.00;101190.19;5043096;28;20381;-69
2022/08/19 02:29:03;;;;;;;33.45;25.48;;;;;;;16.14;100.00;101189.38;5045431;28;20028;-70
2022/08/19 02:31:29;;;;;;;35.47;27.10;;;;;;;16.15;100.00;101189.34;5042071;28;20156;-69
2022/08/19 02:33:55;;;;;;;39.33;28.80;;;;;;;16.09;100.00;101199.19;5045645;28;20029;-70
2022/08/19 02:36:21;;;;;;;36.60;28.80;;;;;;;16.01;100.00;101202.84;5041552;28;20032;-65
2022/08/19 02:38:46;;;;;;;35.15;28.55;;;;;;;15.94;100.00;101200.28;5043864;28;20022;-63
2022/08/19 02:41:32;;;;;;;39.80;29.27;;;;;;;15.91;100.00;101203.00;5043989;28;20100;-64
2022/08/19 02:44:00;;;;;;;37.40;29.88;;;;;;;15.88;100.00;101195.91;5037894;28;20029;-65
2022/08/19 02:46:29;;;;;;;38.70;30.17;;;;;;;15.89;100.00;101199.44;5045064;28;20045;-65
2022/08/19 02:49:02;;;;;;;39.42;28.70;;;;;;;15.86;100.00;101203.91;5042356;28;20033;-66
2022/08/19 02:51:33;;;;;;;37.42;29.02;;;;;;;15.82;100.00;101209.31;5037563;28;20029;-65
2022/08/19 02:53:59;;;;;;;39.10;30.15;;;;;;;15.88;100.00;101211.91;5038497;28;20120;-66
2022/08/19 02:56:26;;;;;;;39.42;29.67;;;;;;;15.83;100.00;101208.41;5044576;28;20487;-66
2022/08/19 02:58:53;;;;;;;40.35;30.38;;;;;;;15.85;100.00;101217.28;5042185;28;20100;-66
2022/08/19 03:01:24;;;;;;;38.47;29.98;;;;;;;15.86;100.00;101213.72;5043903;28;20025;-66
2022/08/19 03:03:50;;;;;;;41.05;30.98;;;;;;;15.85;100.00;101209.28;5042455;28;20051;-66
2022/08/19 03:06:16;;;;;;;39.03;29.60;;;;;;;15.85;100.00;101204.81;5043051;28;20034;-66
2022/08/19 03:08:45;;;;;;;38.08;29.75;;;;;;;15.93;100.00;101207.41;5043608;28;20472;-66
2022/08/19 03:11:19;;;;;;;35.53;26.85;;;;;;;15.87;100.00;101204.78;5041914;28;20104;-66
2022/08/19 03:13:45;;;;;;;35.53;26.88;;;;;;;15.83;100.00;101203.09;5041845;28;20044;-67
2022/08/19 03:16:11;;;;;;;38.72;29.45;;;;;;;15.87;100.00;101199.47;5042570;28;20025;-66
2022/08/19 03:18:38;;;;;;;40.90;32.10;;;;;;;15.84;100.00;101207.50;5044163;28;20025;-60
2022/08/19 03:21:04;;;;;;;41.67;31.65;;;;;;;15.87;100.00;101207.47;5040046;28;20121;-60
2022/08/19 03:23:30;;;;;;;42.22;32.70;;;;;;;15.79;100.00;101212.88;5044900;28;20032;-60
2022/08/19 03:25:55;;;;;;;36.28;28.10;;;;;;;15.69;100.00;101198.75;5041536;28;20084;-60
2022/08/19 03:28:21;;;;;;;36.03;28.85;;;;;;;15.74;100.00;101206.72;5043725;28;20465;-61
2022/08/19 03:30:58;;;;;;;37.55;28.92;;;;;;;15.78;100.00;101199.53;5042763;28;20025;-61
2022/08/19 03:33:25;;;;;;;38.10;29.15;;;;;;;15.81;100.00;101196.88;5043138;28;20414;-60
2022/08/19 03:36:02;;;;;;;41.38;30.88;;;;;;;15.79;100.00;101201.34;5041775;28;20052;-60
2022/08/19 03:38:28;;;;;;;36.58;28.23;;;;;;;15.76;100.00;101207.56;5044190;28;20361;-68
2022/08/19 03:40:53;;;;;;;39.15;30.52;;;;;;;15.80;100.00;101200.44;5041683;28;20044;-68
2022/08/19 03:43:18;;;;;;;41.88;32.90;;;;;;;15.80;100.00;101196.00;5043307;28;20448;-68
2022/08/19 03:45:44;;;;;;;43.83;33.38;;;;;;;15.74;100.00;101195.16;5041746;28;20095;-68
2022/08/19 03:48:09;;;;;;;42.30;33.20;;;;;;;15.71;100.00;101188.06;5041615;28;20128;-68
2022/08/19 03:50:41;;;;;;;37.55;27.98;;;;;;;15.57;100.00;101185.56;5044111;28;20459;-68
2022/08/19 03:53:08;;;;;;;40.75;31.83;;;;;;;15.58;100.00;101192.66;5041194;28;20048;-67
2022/08/19 03:55:38;;;;;;;39.15;30.38;;;;;;;15.59;100.00;101185.53;5044560;28;20495;-68
2022/08/19 03:58:03;;;;;;;43.33;33.55;;;;;;;15.56;100.00;101175.81;5040912;28;20472;-67
2022/08/19 04:00:28;;;;;;;46.40;35.70;;;;;;;15.45;100.00;101194.56;5044089;28;20021;-68
2022/08/19 04:02:54;;;;;;;45.65;35.25;;;;;;;15.42;100.00;101189.28;5041278;28;20117;-68
2022/08/19 04:05:20;;;;;;;47.25;37.97;;;;;;;15.45;100.00;101191.91;5042902;28;20036;-60
2022/08/19 04:07:45;;;;;;;49.85;41.05;;;;;;;15.44;100.00;101192.81;5041075;28;20487;-60
2022/08/19 04:10:11;;;;;;;54.38;43.40;;;;;;;15.46;100.00;101191.00;5041954;28;20067;-68
2022/08/19 04:12:36;;;;;;;44.42;36.30;;;;;;;15.36;100.00;101197.31;5043702;28;20021;-65
2022/08/19 04:15:02;;;;;;;40.35;32.13;;;;;;;15.31;100.00;101185.84;5040890;28;20354;-65
2022/08/19 04:17:28;;;;;;;41.42;33.13;;;;;;;15.33;100.00;101189.34;5043963;28;20021;-60
2022/08/19 04:19:53;;;;;;;47.38;39.22;;;;;;;15.44;100.00;101194.59;5041123;28;20033;-60
2022/08/19 04:22:18;;;;;;;41.67;32.97;;;;;;;15.32;100.00;101191.16;5042374;28;20036;-60
2022/08/19 04:24:44;;;;;;;48.45;38.45;;;;;;;15.48;100.00;101191.00;5045374;28;20025;-68
2022/08/19 04:27:09;;;;;;;52.63;41.20;;;;;;;15.50;100.00;101194.53;5045215;28;20489;-68
2022/08/19 04:29:34;;;;;;;45.65;36.20;;;;;;;15.48;100.00;101189.22;5047926;28;20037;-68
2022/08/19 04:32:00;;;;;;;51.83;42.10;;;;;;;15.54;100.00;101182.03;5044494;28;20376;-67
2022/08/19 04:34:28;;;;;;;45.80;37.10;;;;;;;15.52;100.00;101180.28;5047272;28;20033;-68
2022/08/19 04:36:55;;;;;;;43.15;35.42;;;;;;;15.54;100.00;101179.38;5044792;28;20030;-68
2022/08/19 04:42:38;;;;;;;41.15;31.88;;;;;;;15.38;100.00;101186.63;5046752;28;20493;-68
2022/08/19 04:44:59;;;;;;;48.35;38.40;;;;;;;15.40;100.00;101184.88;5040446;28;20547;-66
2022/08/19 04:47:25;;;;;;;44.50;33.78;;;;;;;15.36;100.00;101189.31;5046789;28;20053;-66
2022/08/19 04:49:51;;;;;;;42.30;32.33;;;;;;;15.24;100.00;101189.47;5045227;28;20025;-66
2022/08/19 04:52:16;;;;;;;42.35;33.15;;;;;;;15.21;100.00;101195.69;5045939;28;20021;-67
2022/08/19 04:54:41;;;;;;;44.75;35.65;;;;;;;15.22;100.00;101201.88;5046329;28;20155;-66
2022/08/19 04:57:09;;;;;;;53.05;42.03;;;;;;;15.25;100.00;101201.88;5044476;28;20095;-66
2022/08/19 04:59:36;;;;;;;50.60;39.65;;;;;;;15.29;100.00;101204.50;5047294;28;20033;-66
2022/08/19 05:02:02;;;;;;;44.95;36.83;;;;;;;15.29;100.00;101204.50;5043684;28;20064;-66
2022/08/19 05:04:30;;;;;;;55.33;40.60;;;;;;;15.40;100.00;101208.84;5046781;28;20061;-66
2022/08/19 05:06:56;;;;;;;53.03;42.30;;;;;;;15.38;100.00;101216.84;5044513;28;20357;-67
2022/08/19 05:09:21;;;;;;;49.67;37.85;;;;;;;15.34;100.00;101207.13;5046050;28;20052;-66
2022/08/19 05:11:47;;;;;;;55.67;42.63;;;;;;;15.43;100.00;101216.78;5045246;28;20025;-66
2022/08/19 05:14:12;;;;;;;54.70;41.22;;;;;;;15.41;100.00;101219.47;5045116;28;20021;-66
2022/08/19 05:16:38;;;;;;;56.70;43.28;;;;;;;15.44;100.00;101218.56;5046215;28;20049;-66
2022/08/19 05:24:33;;;;;;;63.75;47.75;;;;;;;15.39;100.00;101239.94;5039877;28;20059;-65
2022/08/19 05:27:00;;;;;;;62.13;46.35;;;;;;;15.39;100.00;101237.28;5046718;28;20028;-66
2022/08/19 05:29:27;;;;;;;66.03;47.95;;;;;;;15.43;100.00;101254.09;5043834;28;20037;-66
2022/08/19 05:31:53;;;;;;;66.10;48.20;;;;;;;15.46;100.00;101246.94;5045862;28;20037;-65
2022/08/19 05:34:21;;;;;;;64.32;47.33;;;;;;;15.48;100.00;101253.16;5043977;28;20021;-66
2022/08/19 05:36:47;;;;;;;65.72;47.90;;;;;;;15.48;100.00;101255.81;5045045;28;20033;-68
2022/08/19 05:39:16;;;;;;;65.40;47.80;;;;;;;15.49;100.00;101265.59;5045611;28;20047;-67
2022/08/19 05:41:56;;;;;;;68.03;47.97;;;;;;;15.55;100.00;101264.63;5044027;28;20029;-68
2022/08/19 05:44:23;;;;;;;68.72;47.67;;;;;;;15.61;100.00;101259.25;5044246;28;20039;-68
2022/08/19 05:46:49;;;;;;;69.25;47.78;;;;;;;15.63;100.00;101257.44;5044773;28;20542;-68
2022/08/19 05:49:16;;;;;;;68.97;49.03;;;;;;;15.62;100.00;101253.00;5045134;28;20025;-68
2022/08/19 05:51:42;;;;;;;70.57;48.97;;;;;;;15.61;100.00;101253.91;5033460;28;20618;-61
2022/08/19 05:54:08;;;;;;;71.00;49.38;;;;;;;15.62;100.00;101254.78;5041703;28;20108;-62
2022/08/19 05:56:37;;;;;;;69.75;49.55;;;;;;;15.67;100.00;101256.50;5041682;28;20088;-61
2022/08/19 05:59:07;;;;;;;71.50;49.17;;;;;;;15.69;100.00;101246.72;5034097;28;20033;-61
2022/08/19 06:01:35;;;;;;;71.35;48.78;;;;;;;15.72;100.00;101250.25;5036946;28;20151;-67
2022/08/19 06:04:02;;;;;;;71.47;49.08;;;;;;;15.72;100.00;101245.81;5033094;28;20033;-62
2022/08/19 06:06:28;;;;;;;70.78;49.15;;;;;;;15.73;100.00;101239.59;5034330;28;20476;-67
2022/08/19 06:08:53;;;;;;;74.35;49.42;;;;;;;15.73;100.00;101244.91;5034293;28;20040;-63
2022/08/19 06:11:34;;;;;;;76.30;50.03;;;;;;;15.77;100.00;101243.97;5033890;28;20116;-64
2022/08/19 06:14:03;;;;;;;74.72;49.53;;;;;;;15.80;100.00;101235.06;5034539;28;20508;-62
2022/08/19 06:16:31;;;;;;;71.20;48.63;;;;;;;15.83;100.00;101237.75;5033057;28;20388;-62
2022/08/19 06:19:00;;;;;;;75.05;49.75;;;;;;;15.82;100.00;101236.84;5030441;28;20060;-68
2022/08/19 06:21:27;;;;;;;70.40;48.65;;;;;;;15.85;100.00;101231.47;5035624;28;20032;-64
2022/08/19 06:23:54;;;;;;;64.63;45.63;;;;;;;15.88;100.00;101240.34;5033158;28;20037;-65
2022/08/19 06:26:20;;;;;;;65.90;45.10;;;;;;;15.89;100.00;101229.66;5033164;28;20105;-67
2022/08/19 06:28:46;;;;;;;67.28;45.97;;;;;;;15.91;100.00;101235.84;5034478;28;20068;-60
2022/08/19 06:31:24;;;;;;;64.00;45.05;;;;;;;15.94;100.00;101235.81;5033624;28;20021;-62
2022/08/19 06:33:50;;;;;;;66.28;45.72;;;;;;;15.98;100.00;101234.88;5035228;28;20030;-61
2022/08/19 06:36:27;;;;;;;65.38;45.45;;;;;;;15.99;100.00;101234.00;5032803;28;20083;-61
2022/08/19 06:38:53;;;;;;;62.90;45.33;;;;;;;16.08;100.00;101237.44;5035114;28;20112;-60
2022/08/19 06:41:19;;;;;;;65.78;44.30;;;;;;;16.13;100.00;101231.13;5031971;28;20087;-60
2022/08/19 06:43:44;;;;;;;60.88;42.42;;;;;;;16.19;100.00;101236.41;5034140;28;20473;-61
2022/08/19 06:46:15;;;;;;;61.90;43.22;;;;;;;16.24;100.00;101239.00;5032270;28;20116;-60
2022/08/19 06:48:41;;;;;;;63.13;42.30;;;;;;;16.28;100.00;101240.75;5035345;28;20045;-61
2022/08/19 06:51:07;;;;;;;63.50;43.40;;;;;;;16.41;100.00;101238.81;5032275;28;20037;-61
2022/08/19 06:53:33;;;;;;;61.30;41.10;;;;;;;16.48;100.00;101243.13;5037575;28;20539;-60
2022/08/19 06:56:02;;;;;;;60.10;41.15;;;;;;;16.58;100.00;101237.69;5033211;28;20075;-60
2022/08/19 06:58:31;;;;;;;58.50;38.63;;;;;;;16.69;100.00;101241.06;5031898;28;20026;-60
2022/08/19 07:01:00;;;;;;;59.15;40.78;;;;;;;16.81;100.00;101243.53;5033165;28;20033;-61
2022/08/19 07:03:28;;;;;;;56.97;37.33;;;;;;;16.95;100.00;101240.72;5034069;28;20056;-61
2022/08/19 07:05:54;;;;;;;54.40;35.53;;;;;;;17.06;100.00;101243.19;5034244;28;20536;-61
2022/08/19 07:08:19;;;;;;;50.83;34.78;;;;;;;17.17;100.00;101243.00;5035502;28;20099;-59
2022/08/19 07:10:45;;;;;;;50.75;33.95;;;;;;;17.34;100.00;101238.25;5035792;28;20033;-61
2022/08/19 07:13:11;;;;;;;50.65;35.40;;;;;;;17.41;100.00;101236.38;5032036;28;20022;-60
2022/08/19 07:15:37;;;;;;;51.35;34.33;;;;;;;17.47;100.00;101235.38;5031608;28;20461;-60
2022/08/19 07:18:02;;;;;;;49.15;34.33;;;;;;;17.60;100.00;101242.25;5031440;28;20499;-60
2022/08/19 07:20:28;;;;;;;47.60;33.28;;;;;;;17.89;100.00;101246.19;5034331;28;20021;-61
2022/08/19 07:22:53;;;;;;;46.83;31.75;;;;;;;18.10;100.00;101253.81;5030264;28;20060;-60
2022/08/19 07:25:20;;;;;;;45.92;32.17;;;;;;;18.26;100.00;101256.13;5032890;28;20053;-60
2022/08/19 07:27:49;;;;;;;45.47;32.72;;;;;;;18.60;100.00;101263.47;5028403;28;20033;-60
2022/08/19 07:30:14;;;;;;;45.53;32.03;;;;;;;18.70;100.00;101265.00;5034215;28;20029;-64
2022/08/19 07:32:40;;;;;;;45.88;34.35;;;;;;;18.80;100.00;101266.56;5039312;28;20152;-66
2022/08/19 07:35:07;;;;;;;46.08;33.35;;;;;;;18.75;100.00;101265.78;5032478;28;20068;-67
2022/08/19 07:37:32;;;;;;;45.90;32.47;;;;;;;18.83;100.00;101270.97;5036650;28;20036;-67
2022/08/19 07:39:57;;;;;;;49.42;35.67;;;;;;;18.80;100.00;101266.56;5041492;28;20025;-68
2022/08/19 07:42:23;;;;;;;49.53;37.00;;;;;;;18.74;100.00;101268.47;5043124;28;20060;-67
2022/08/19 07:44:48;;;;;;;51.95;38.10;;;;;;;18.75;100.00;101268.44;5041486;28;20038;-62
2022/08/19 07:47:15;;;;;;;50.47;36.45;;;;;;;18.73;100.00;101281.00;5044214;28;20048;-66
2022/08/19 07:49:41;;;;;;;49.22;37.55;;;;;;;18.69;100.00;101281.13;5036679;28;20544;-62
2022/08/19 07:52:09;;;;;;;50.38;38.47;;;;;;;18.75;100.00;101283.63;5043569;28;20107;-66
2022/08/19 07:54:39;;;;;;;48.08;36.67;;;;;;;18.94;100.00;101297.53;5041764;28;20028;-60
2022/08/19 07:57:04;;;;;;;49.92;37.22;;;;;;;18.96;100.00;101288.53;5043314;28;20029;-61
2022/08/19 07:59:30;;;;;;;51.80;37.58;;;;;;;19.05;100.00;101294.59;5041844;28;20443;-61
2022/08/19 08:01:57;;;;;;;50.45;38.83;;;;;;;19.10;100.00;101298.91;5042628;28;20064;-61
2022/08/19 08:09:52;;;;;;;52.47;39.90;;;;;;;19.12;100.00;101290.84;5038911;28;20403;-61
2022/08/19 08:12:28;;;;;;;51.20;39.08;;;;;;;19.15;100.00;101304.19;5043668;28;20025;-60
2022/08/19 08:14:56;;;;;;;51.40;39.97;;;;;;;19.11;100.00;101294.44;5042059;28;20142;-60
2022/08/19 08:17:25;;;;;;;51.17;39.13;;;;;;;19.04;100.00;101301.75;5043188;28;20031;-70
2022/08/19 08:19:50;;;;;;;48.78;37.20;;;;;;;19.13;100.00;101306.00;5040044;28;20108;-69
2022/08/19 08:25:08;;;;;;;50.83;39.70;;;;;;;19.11;100.00;101308.72;5043267;28;20052;-70
2022/08/19 08:27:39;;;;;;;50.17;39.60;;;;;;;19.01;100.00;101307.19;5041480;28;20021;-69
2022/08/19 08:30:09;;;;;;;49.28;40.20;;;;;;;19.08;100.00;101319.50;5043087;28;20554;-70
2022/08/19 08:32:36;;;;;;;43.97;33.67;;;;;;;19.05;100.00;101318.72;5041247;28;20065;-70
2022/08/19 08:35:01;;;;;;;47.10;36.40;;;;;;;19.28;100.00;101315.47;5042700;28;20409;-70
2022/08/19 08:37:26;;;;;;;45.72;35.72;;;;;;;19.56;100.00;101323.72;5042224;28;20047;-70
2022/08/19 08:39:52;;;;;;;42.58;33.83;;;;;;;19.63;100.00;101321.72;5041101;28;20114;-70
2022/08/19 08:42:26;;;;;;;42.20;31.85;;;;;;;19.58;100.00;101329.91;5043831;28;20058;-70
2022/08/19 08:44:58;;;;;;;40.95;31.67;;;;;;;19.63;100.00;101336.03;5041440;28;20022;-70
2022/08/19 08:47:26;;;;;;;38.53;28.60;;;;;;;19.75;100.00;101348.25;5041103;28;20049;-70
2022/08/19 08:50:00;;;;;;;37.78;28.27;;;;;;;19.94;100.00;101339.75;5041181;28;20025;-68
2022/08/19 08:52:29;;;;;;;40.40;30.45;;;;;;;19.73;100.00;101334.00;5042488;28;20032;-70
2022/08/19 08:54:58;;;;;;;40.95;31.05;;;;;;;19.60;100.00;101343.25;5041356;28;20429;-70
2022/08/19 08:57:32;;;;;;;41.20;30.70;;;;;;;19.59;100.00;101330.81;5042717;28;20075;-70
2022/08/19 09:00:02;;;;;;;41.22;30.88;;;;;;;19.59;100.00;101331.66;5041942;28;20080;-61
2022/08/19 09:02:27;;;;;;;40.78;30.52;;;;;;;19.75;100.00;101326.78;5042442;28;20036;-60
2022/08/19 09:04:54;;;;;;;41.85;31.27;;;;;;;19.82;100.00;101328.44;5040934;28;20092;-61
2022/08/19 09:07:52;;;;;;;45.03;32.13;;;;;;;20.10;100.00;101316.94;5040191;28;20103;-61
2022/08/19 09:10:43;;;;;;;42.88;31.55;;;;;;;20.38;100.00;101329.56;5042273;28;20051;-61
2022/08/19 09:13:17;;;;;;;40.75;30.48;;;;;;;20.71;100.00;101321.47;5041858;28;20044;-61
2022/08/19 09:15:47;;;;;;;39.97;30.92;;;;;;;20.93;100.00;101323.50;5044853;28;20021;-61
2022/08/19 09:18:14;;;;;;;40.03;30.52;;;;;;;20.90;100.00;101322.66;5045288;28;20160;-61
2022/08/19 09:20:39;;;;;;;40.70;30.98;;;;;;;20.71;100.00;101319.66;5045785;28;20025;-60
2022/08/19 09:23:05;;;;;;;39.00;30.13;;;;;;;20.53;100.00;101329.13;5044025;28;20035;-61
2022/08/19 09:25:31;;;;;;;43.28;32.85;;;;;;;20.37;100.00;101330.47;5047347;28;20459;-60
2022/08/19 09:27:57;;;;;;;39.75;30.77;;;;;;;20.10;100.00;101334.84;5039278;28;20029;-61
2022/08/19 09:30:25;;;;;;;41.53;31.88;;;;;;;19.92;100.00;101346.94;5046358;28;20032;-61
2022/08/19 09:32:52;;;;;;;40.53;31.95;;;;;;;19.84;100.00;101347.16;5043951;28;20476;-61
2022/08/19 09:35:21;;;;;;;41.55;32.10;;;;;;;19.87;100.00;101343.53;5044423;28;20439;-60
2022/08/19 09:37:48;;;;;;;43.28;33.80;;;;;;;19.82;100.00;101340.97;5044302;28;20032;-61
2022/08/19 09:40:14;;;;;;;43.35;33.78;;;;;;;20.05;100.00;101339.44;5045340;28;20076;-61
2022/08/19 09:42:39;;;;;;;44.30;32.63;;;;;;;20.39;100.00;101342.09;5045311;28;20021;-61
2022/08/19 09:45:05;;;;;;;42.47;32.63;;;;;;;20.45;100.00;101338.34;5043420;28;20030;-61
2022/08/19 09:47:32;;;;;;;43.85;32.88;;;;;;;20.41;100.00;101334.84;5046366;28;20053;-67
2022/08/19 09:49:57;;;;;;;42.90;31.65;;;;;;;20.51;100.00;101332.78;5038995;28;20026;-66
2022/08/19 09:52:23;;;;;;;41.72;31.25;;;;;;;20.70;100.00;101344.75;5046004;28;20028;-62
2022/08/19 09:54:52;;;;;;;42.08;32.03;;;;;;;20.72;100.00;101347.41;5044459;28;20102;-61
2022/08/19 09:57:17;;;;;;;40.85;31.70;;;;;;;20.59;100.00;101346.88;5045313;28;20060;-61
2022/08/19 09:59:44;;;;;;;41.10;31.58;;;;;;;20.70;100.00;101347.44;5045001;28;20433;-66
2022/08/19 10:02:10;;;;;;;41.80;32.20;;;;;;;20.86;100.00;101344.31;5043993;28;20040;-66
2022/08/19 10:07:19;;;;;;;44.75;32.22;;;;;;;20.59;100.00;101348.66;5045274;28;20083;-63
2022/08/19 10:09:44;;;;;;;41.38;31.35;;;;;;;20.77;100.00;101356.22;5044323;28;20108;-66
2022/08/19 10:12:10;;;;;;;42.85;32.50;;;;;;;20.84;100.00;101347.03;5043833;28;20469;-66
2022/08/19 10:14:35;;;;;;;41.13;31.38;;;;;;;20.81;100.00;101351.59;5045222;28;20025;-66
2022/08/19 10:17:02;;;;;;;40.50;31.38;;;;;;;20.70;100.00;101355.50;5042616;28;20481;-66
2022/08/19 10:19:32;;;;;;;41.95;31.67;;;;;;;20.85;100.00;101343.44;5038604;28;20045;-66
2022/08/19 10:21:57;;;;;;;41.28;30.88;;;;;;;22.07;100.00;101346.63;5037511;28;20456;-66
2022/08/19 10:24:24;;;;;;;40.30;29.95;;;;;;;22.38;100.00;101340.13;5045602;28;20017;-67
2022/08/19 10:26:49;;;;;;;40.35;29.38;;;;;;;22.58;100.00;101342.09;5043330;28;20443;-67
2022/08/19 10:29:16;;;;;;;39.17;29.77;;;;;;;22.27;100.00;101338.69;5044238;28;20026;-67
2022/08/19 10:31:41;;;;;;;37.78;28.20;;;;;;;21.88;100.00;101341.88;5044439;28;20050;-67
2022/08/19 10:34:07;;;;;;;38.75;28.08;;;;;;;21.80;100.00;101343.06;5042934;28;20159;-67
2022/08/19 10:36:35;;;;;;;38.25;28.55;;;;;;;21.74;100.00;101344.16;5045364;28;20025;-67
2022/08/19 10:39:04;;;;;;;40.53;28.17;;;;;;;21.80;100.00;101349.34;5040807;28;20033;-67
2022/08/19 10:41:34;;;;;;;38.22;28.05;;;;;;;21.87;100.00;101348.22;5038577;28;20028;-67
2022/08/19 10:44:03;;;;;;;37.22;28.50;;;;;;;21.90;100.00;101349.88;5038220;28;20036;-61
2022/08/19 10:46:32;;;;;;;37.67;28.17;;;;;;;21.83;100.00;101345.66;5037752;28;20108;-62
2022/08/19 10:48:59;;;;;;;36.90;27.05;;;;;;;21.93;100.00;101339.00;5038160;28;20033;-66
2022/08/19 10:54:08;;;;;;;37.53;27.20;;;;;;;22.31;100.00;101333.19;5040233;28;20159;-61
2022/08/19 10:56:52;;;;;;;37.20;27.42;;;;;;;22.27;100.00;101333.31;5045111;28;20029;-63
2022/08/19 10:59:21;;;;;;;36.25;26.05;;;;;;;22.31;100.00;101333.19;5043957;28;20096;-61
2022/08/19 11:01:46;;;;;;;36.42;25.42;;;;;;;22.56;100.00;101334.06;5043282;28;20472;-60
2022/08/19 11:04:13;;;;;;;36.92;26.58;;;;;;;22.71;100.00;101334.41;5042706;28;20041;-61
2022/08/19 11:06:41;;;;;;;35.30;26.90;;;;;;;22.79;100.00;101337.69;5044261;28;20075;-61
2022/08/19 11:09:07;;;;;;;36.50;25.88;;;;;;;23.02;100.00;101335.88;5042210;28;20108;-62
2022/08/19 11:11:35;;;;;;;34.83;26.05;;;;;;;22.92;100.00;101329.97;5043340;28;20025;-60
2022/08/19 11:14:00;;;;;;;37.50;26.88;;;;;;;22.91;100.00;101328.25;5040188;28;20036;-62
2022/08/19 11:16:29;;;;;;;36.47;26.48;;;;;;;23.07;100.00;101331.22;5044690;28;20028;-61
2022/08/19 11:18:58;;;;;;;35.97;25.63;;;;;;;23.23;100.00;101334.19;5042117;28;20029;-62
2022/08/19 11:21:31;;;;;;;38.00;27.88;;;;;;;23.55;100.00;101338.25;5044267;28;20374;-61
2022/08/19 11:24:03;;;;;;;37.28;28.35;;;;;;;23.69;100.00;101332.22;5041190;28;20033;-60
2022/08/19 11:26:30;;;;;;;36.60;28.20;;;;;;;23.96;100.00;101342.81;5037375;28;20075;-62